sensor_id;sensor_type;location;lat;lon;timestamp;temperature;humidity
37050;DHT22;22958;51.232;6.826;2023-10-31T00:02:09;11.70;99.90
37050;DHT22;22958;51.232;6.826;2023-10-31T00:04:34;11.70;99.90
37050;DHT22;22958;51.232;6.826;2023-10-31T00:07:03;11.70;99.90
37050;DHT22;22958;51.232;6.826;2023-10-31T00:09:28;11.70;99.90
37050;DHT22;22958;51.232;6.826;2023-10-31T00:11:54;11.70;99.90
37050;DHT22;22958;51.232;6.826;2023-10-31T00:14:19;11.70;99.90
37050;DHT22;22958;51.232;6.826;2023-10-31T00:16:45;11.70;99.90
37050;DHT22;22958;51.232;6.826;2023-10-31T00:19:11;11.70;99.90
37050;DHT22;22958;51.232;6.826;2023-10-31T00:21:36;11.70;99.90
37050;DHT22;22958;51.232;6.826;2023-10-31T00:24:02;11.60;99.90
37050;DHT22;22958;51.232;6.826;2023-10-31T00:26:28;11.60;99.90
37050;DHT22;22958;51.232;6.826;2023-10-31T00:28:54;11.70;99.90
37050;DHT22;22958;51.232;6.826;2023-10-31T00:31:19;11.60;99.90
37050;DHT22;22958;51.232;6.826;2023-10-31T00:33:45;11.60;99.90
37050;DHT22;22958;51.232;6.826;2023-10-31T00:36:11;11.60;99.90
37050;DHT22;22958;51.232;6.826;2023-10-31T00:38:37;11.60;99.90
37050;DHT22;22958;51.232;6.826;2023-10-31T00:41:02;11.60;99.90
37050;DHT22;22958;51.232;6.826;2023-10-31T00:43:28;11.60;99.90
37050;DHT22;22958;51.232;6.826;2023-10-31T00:45:53;11.60;99.90
37050;DHT22;22958;51.232;6.826;2023-10-31T00:48:19;11.50;99.90
37050;DHT22;22958;51.232;6.826;2023-10-31T00:50:45;11.50;99.90
37050;DHT22;22958;51.232;6.826;2023-10-31T00:53:10;11.50;99.90
37050;DHT22;22958;51.232;6.826;2023-10-31T00:55:36;11.50;99.90
37050;DHT22;22958;51.232;6.826;2023-10-31T00:58:02;11.50;99.90
37050;DHT22;22958;51.232;6.826;2023-10-31T01:00:28;11.50;99.90
37050;DHT22;22958;51.232;6.826;2023-10-31T01:02:54;11.40;99.90
37050;DHT22;22958;51.232;6.826;2023-10-31T01:05:19;11.40;99.90
37050;DHT22;22958;51.232;6.826;2023-10-31T01:07:45;11.40;99.90
37050;DHT22;22958;51.232;6.826;2023-10-31T01:10:10;11.40;99.90
37050;DHT22;22958;51.232;6.826;2023-10-31T01:12:36;11.40;99.90
37050;DHT22;22958;51.232;6.826;2023-10-31T01:15:02;11.30;99.90
37050;DHT22;22958;51.232;6.826;2023-10-31T01:17:28;11.40;99.90
37050;DHT22;22958;51.232;6.826;2023-10-31T01:19:53;11.40;99.90
37050;DHT22;22958;51.232;6.826;2023-10-31T01:22:19;11.40;99.90
37050;DHT22;22958;51.232;6.826;2023-10-31T01:24:44;11.30;99.90
37050;DHT22;22958;51.232;6.826;2023-10-31T01:27:10;11.30;99.90
37050;DHT22;22958;51.232;6.826;2023-10-31T01:29:35;11.30;99.90
37050;DHT22;22958;51.232;6.826;2023-10-31T01:32:01;11.40;99.90
37050;DHT22;22958;51.232;6.826;2023-10-31T01:34:26;11.30;99.90
37050;DHT22;22958;51.232;6.826;2023-10-31T01:36:52;11.30;99.90
37050;DHT22;22958;51.232;6.826;2023-10-31T01:39:17;11.20;99.90
37050;DHT22;22958;51.232;6.826;2023-10-31T01:41:43;11.20;99.90
37050;DHT22;22958;51.232;6.826;2023-10-31T01:44:10;11.20;99.90
37050;DHT22;22958;51.232;6.826;2023-10-31T01:46:35;11.20;99.90
37050;DHT22;22958;51.232;6.826;2023-10-31T01:49:01;11.20;99.90
37050;DHT22;22958;51.232;6.826;2023-10-31T01:51:28;11.20;99.90
37050;DHT22;22958;51.232;6.826;2023-10-31T01:53:54;11.30;99.90
37050;DHT22;22958;51.232;6.826;2023-10-31T01:56:20;11.30;99.90
37050;DHT22;22958;51.232;6.826;2023-10-31T01:58:48;11.30;99.90
37050;DHT22;22958;51.232;6.826;2023-10-31T02:01:14;11.30;99.90
37050;DHT22;22958;51.232;6.826;2023-10-31T02:03:39;11.30;99.90
37050;DHT22;22958;51.232;6.826;2023-10-31T02:06:05;11.30;99.90
37050;DHT22;22958;51.232;6.826;2023-10-31T02:08:31;11.30;99.90
37050;DHT22;22958;51.232;6.826;2023-10-31T02:10:56;11.30;99.90
37050;DHT22;22958;51.232;6.826;2023-10-31T02:13:22;11.30;99.90
37050;DHT22;22958;51.232;6.826;2023-10-31T02:15:48;11.30;99.90
37050;DHT22;22958;51.232;6.826;2023-10-31T02:18:14;11.30;99.90
37050;DHT22;22958;51.232;6.826;2023-10-31T02:20:39;11.30;99.90
37050;DHT22;22958;51.232;6.826;2023-10-31T02:23:05;11.30;99.90
37050;DHT22;22958;51.232;6.826;2023-10-31T02:25:31;11.30;99.90
37050;DHT22;22958;51.232;6.826;2023-10-31T02:27:57;11.20;99.90
37050;DHT22;22958;51.232;6.826;2023-10-31T02:30:23;11.30;99.90
37050;DHT22;22958;51.232;6.826;2023-10-31T02:32:49;11.30;99.90
37050;DHT22;22958;51.232;6.826;2023-10-31T02:35:17;11.30;99.90
37050;DHT22;22958;51.232;6.826;2023-10-31T02:37:46;11.20;99.90
37050;DHT22;22958;51.232;6.826;2023-10-31T02:40:12;11.20;99.90
37050;DHT22;22958;51.232;6.826;2023-10-31T02:42:38;11.20;99.90
37050;DHT22;22958;51.232;6.826;2023-10-31T02:45:04;11.20;99.90
37050;DHT22;22958;51.232;6.826;2023-10-31T02:47:29;11.20;99.90
37050;DHT22;22958;51.232;6.826;2023-10-31T02:49:55;11.20;99.90
37050;DHT22;22958;51.232;6.826;2023-10-31T02:54:48;11.10;99.90
37050;DHT22;22958;51.232;6.826;2023-10-31T02:57:15;11.10;99.90
37050;DHT22;22958;51.232;6.826;2023-10-31T02:59:41;11.00;99.90
37050;DHT22;22958;51.232;6.826;2023-10-31T03:02:06;10.90;99.90
37050;DHT22;22958;51.232;6.826;2023-10-31T03:04:31;11.00;99.90
37050;DHT22;22958;51.232;6.826;2023-10-31T03:06:57;11.00;99.90
37050;DHT22;22958;51.232;6.826;2023-10-31T03:09:22;11.00;99.90
37050;DHT22;22958;51.232;6.826;2023-10-31T03:11:48;11.00;99.90
37050;DHT22;22958;51.232;6.826;2023-10-31T03:14:13;11.00;99.90
37050;DHT22;22958;51.232;6.826;2023-10-31T03:16:39;11.00;99.90
37050;DHT22;22958;51.232;6.826;2023-10-31T03:19:05;11.00;99.90
37050;DHT22;22958;51.232;6.826;2023-10-31T03:21:31;11.00;99.90
37050;DHT22;22958;51.232;6.826;2023-10-31T03:23:57;11.10;99.90
37050;DHT22;22958;51.232;6.826;2023-10-31T03:26:23;11.10;99.90
37050;DHT22;22958;51.232;6.826;2023-10-31T03:28:48;11.10;99.90
37050;DHT22;22958;51.232;6.826;2023-10-31T03:31:14;11.10;99.90
37050;DHT22;22958;51.232;6.826;2023-10-31T03:33:41;11.10;99.90
37050;DHT22;22958;51.232;6.826;2023-10-31T03:36:07;11.10;99.90
37050;DHT22;22958;51.232;6.826;2023-10-31T03:38:33;11.10;99.90
37050;DHT22;22958;51.232;6.826;2023-10-31T03:40:59;11.10;99.90
37050;DHT22;22958;51.232;6.826;2023-10-31T03:43:25;11.10;99.90
37050;DHT22;22958;51.232;6.826;2023-10-31T03:45:51;11.20;99.90
37050;DHT22;22958;51.232;6.826;2023-10-31T03:48:17;11.10;99.90
37050;DHT22;22958;51.232;6.826;2023-10-31T03:50:43;11.10;99.90
37050;DHT22;22958;51.232;6.826;2023-10-31T03:53:08;11.20;99.90
37050;DHT22;22958;51.232;6.826;2023-10-31T03:55:34;11.20;99.90
37050;DHT22;22958;51.232;6.826;2023-10-31T03:58:00;11.20;99.90
37050;DHT22;22958;51.232;6.826;2023-10-31T04:00:25;11.20;99.90
37050;DHT22;22958;51.232;6.826;2023-10-31T04:02:51;11.20;99.90
37050;DHT22;22958;51.232;6.826;2023-10-31T04:05:17;11.20;99.90
37050;DHT22;22958;51.232;6.826;2023-10-31T04:07:43;11.10;99.90
37050;DHT22;22958;51.232;6.826;2023-10-31T04:10:09;11.20;99.90
37050;DHT22;22958;51.232;6.826;2023-10-31T04:12:35;11.20;99.90
37050;DHT22;22958;51.232;6.826;2023-10-31T04:15:01;11.20;99.90
37050;DHT22;22958;51.232;6.826;2023-10-31T04:17:26;11.20;99.90
37050;DHT22;22958;51.232;6.826;2023-10-31T04:19:52;11.10;99.90
37050;DHT22;22958;51.232;6.826;2023-10-31T04:22:17;11.10;99.90
37050;DHT22;22958;51.232;6.826;2023-10-31T04:24:43;11.20;99.90
37050;DHT22;22958;51.232;6.826;2023-10-31T04:27:09;11.20;99.90
37050;DHT22;22958;51.232;6.826;2023-10-31T04:29:34;11.20;99.90
37050;DHT22;22958;51.232;6.826;2023-10-31T04:32:00;11.20;99.90
37050;DHT22;22958;51.232;6.826;2023-10-31T04:34:25;11.20;99.90
37050;DHT22;22958;51.232;6.826;2023-10-31T04:36:51;11.10;99.90
37050;DHT22;22958;51.232;6.826;2023-10-31T04:39:17;11.10;99.90
37050;DHT22;22958;51.232;6.826;2023-10-31T04:41:42;11.10;99.90
37050;DHT22;22958;51.232;6.826;2023-10-31T04:44:08;11.10;99.90
37050;DHT22;22958;51.232;6.826;2023-10-31T04:46:33;11.10;99.90
37050;DHT22;22958;51.232;6.826;2023-10-31T04:48:59;11.20;99.90
37050;DHT22;22958;51.232;6.826;2023-10-31T04:51:24;11.20;99.90
37050;DHT22;22958;51.232;6.826;2023-10-31T04:53:50;11.30;99.90
37050;DHT22;22958;51.232;6.826;2023-10-31T04:56:16;11.20;99.90
37050;DHT22;22958;51.232;6.826;2023-10-31T04:58:43;11.20;99.90
37050;DHT22;22958;51.232;6.826;2023-10-31T05:01:12;11.10;99.90
37050;DHT22;22958;51.232;6.826;2023-10-31T05:03:38;11.00;99.90
37050;DHT22;22958;51.232;6.826;2023-10-31T05:06:04;11.00;99.90
37050;DHT22;22958;51.232;6.826;2023-10-31T05:08:30;11.00;99.90
37050;DHT22;22958;51.232;6.826;2023-10-31T05:10:57;11.00;99.90
37050;DHT22;22958;51.232;6.826;2023-10-31T05:13:23;11.10;99.90
37050;DHT22;22958;51.232;6.826;2023-10-31T05:15:48;11.00;99.90
37050;DHT22;22958;51.232;6.826;2023-10-31T05:18:14;11.10;99.90
37050;DHT22;22958;51.232;6.826;2023-10-31T05:20:39;11.10;99.90
37050;DHT22;22958;51.232;6.826;2023-10-31T05:23:05;11.00;99.90
37050;DHT22;22958;51.232;6.826;2023-10-31T05:25:30;11.00;99.90
37050;DHT22;22958;51.232;6.826;2023-10-31T05:27:56;10.90;99.90
37050;DHT22;22958;51.232;6.826;2023-10-31T05:30:22;10.80;99.90
37050;DHT22;22958;51.232;6.826;2023-10-31T05:32:47;10.80;99.90
37050;DHT22;22958;51.232;6.826;2023-10-31T05:35:13;10.80;99.90
37050;DHT22;22958;51.232;6.826;2023-10-31T05:37:38;10.80;99.90
37050;DHT22;22958;51.232;6.826;2023-10-31T05:40:04;10.80;99.90
37050;DHT22;22958;51.232;6.826;2023-10-31T05:42:30;10.80;99.90
37050;DHT22;22958;51.232;6.826;2023-10-31T05:44:56;10.80;99.90
37050;DHT22;22958;51.232;6.826;2023-10-31T05:47:22;10.70;99.90
37050;DHT22;22958;51.232;6.826;2023-10-31T05:49:48;10.70;99.90
37050;DHT22;22958;51.232;6.826;2023-10-31T05:52:13;10.70;99.90
37050;DHT22;22958;51.232;6.826;2023-10-31T05:54:39;10.60;99.90
37050;DHT22;22958;51.232;6.826;2023-10-31T05:57:05;10.60;99.90
37050;DHT22;22958;51.232;6.826;2023-10-31T05:59:31;10.60;99.90
37050;DHT22;22958;51.232;6.826;2023-10-31T06:01:57;10.60;99.90
37050;DHT22;22958;51.232;6.826;2023-10-31T06:04:23;10.60;99.90
37050;DHT22;22958;51.232;6.826;2023-10-31T06:06:50;10.50;99.90
37050;DHT22;22958;51.232;6.826;2023-10-31T06:09:16;10.50;99.90
37050;DHT22;22958;51.232;6.826;2023-10-31T06:11:42;10.50;99.90
37050;DHT22;22958;51.232;6.826;2023-10-31T06:14:08;10.50;99.90
37050;DHT22;22958;51.232;6.826;2023-10-31T06:16:43;10.50;99.90
37050;DHT22;22958;51.232;6.826;2023-10-31T06:19:09;10.50;99.90
37050;DHT22;22958;51.232;6.826;2023-10-31T06:21:35;10.50;99.90
37050;DHT22;22958;51.232;6.826;2023-10-31T06:24:04;10.50;99.90
37050;DHT22;22958;51.232;6.826;2023-10-31T06:26:29;10.50;99.90
37050;DHT22;22958;51.232;6.826;2023-10-31T06:28:56;10.50;99.90
37050;DHT22;22958;51.232;6.826;2023-10-31T06:31:21;10.60;99.90
37050;DHT22;22958;51.232;6.826;2023-10-31T06:33:47;10.60;99.90
37050;DHT22;22958;51.232;6.826;2023-10-31T06:36:12;10.60;99.90
37050;DHT22;22958;51.232;6.826;2023-10-31T06:38:38;10.60;99.90
37050;DHT22;22958;51.232;6.826;2023-10-31T06:41:04;10.60;99.90
37050;DHT22;22958;51.232;6.826;2023-10-31T06:43:29;10.70;99.90
37050;DHT22;22958;51.232;6.826;2023-10-31T06:45:55;10.60;99.90
37050;DHT22;22958;51.232;6.826;2023-10-31T06:48:20;10.60;99.90
37050;DHT22;22958;51.232;6.826;2023-10-31T06:50:46;10.60;99.90
37050;DHT22;22958;51.232;6.826;2023-10-31T06:53:12;10.60;99.90
37050;DHT22;22958;51.232;6.826;2023-10-31T06:55:37;10.70;99.90
37050;DHT22;22958;51.232;6.826;2023-10-31T06:58:03;10.60;99.90
37050;DHT22;22958;51.232;6.826;2023-10-31T07:00:28;10.60;99.90
37050;DHT22;22958;51.232;6.826;2023-10-31T07:02:54;10.60;99.90
37050;DHT22;22958;51.232;6.826;2023-10-31T07:05:19;10.50;99.90
37050;DHT22;22958;51.232;6.826;2023-10-31T07:07:48;10.50;99.90
37050;DHT22;22958;51.232;6.826;2023-10-31T07:10:13;10.50;99.90
37050;DHT22;22958;51.232;6.826;2023-10-31T07:12:39;10.50;99.90
37050;DHT22;22958;51.232;6.826;2023-10-31T07:15:05;10.60;99.90
37050;DHT22;22958;51.232;6.826;2023-10-31T07:17:31;10.60;99.90
37050;DHT22;22958;51.232;6.826;2023-10-31T07:19:57;10.60;99.90
37050;DHT22;22958;51.232;6.826;2023-10-31T07:22:22;10.60;99.90
37050;DHT22;22958;51.232;6.826;2023-10-31T07:24:50;10.60;99.90
37050;DHT22;22958;51.232;6.826;2023-10-31T07:27:16;10.70;99.90
37050;DHT22;22958;51.232;6.826;2023-10-31T07:29:42;10.70;99.90
37050;DHT22;22958;51.232;6.826;2023-10-31T07:32:08;10.60;99.90
37050;DHT22;22958;51.232;6.826;2023-10-31T07:34:34;10.60;99.90
37050;DHT22;22958;51.232;6.826;2023-10-31T07:37:00;10.70;99.90
37050;DHT22;22958;51.232;6.826;2023-10-31T07:39:26;10.70;99.90
37050;DHT22;22958;51.232;6.826;2023-10-31T07:41:51;10.70;99.90
37050;DHT22;22958;51.232;6.826;2023-10-31T07:44:17;10.70;99.90
37050;DHT22;22958;51.232;6.826;2023-10-31T07:46:42;10.70;99.90
37050;DHT22;22958;51.232;6.826;2023-10-31T07:49:09;10.70;99.90
37050;DHT22;22958;51.232;6.826;2023-10-31T07:51:35;10.70;99.90
37050;DHT22;22958;51.232;6.826;2023-10-31T07:54:00;10.70;99.90
37050;DHT22;22958;51.232;6.826;2023-10-31T07:56:26;10.80;99.90
37050;DHT22;22958;51.232;6.826;2023-10-31T07:58:52;10.70;99.90
37050;DHT22;22958;51.232;6.826;2023-10-31T08:01:18;10.80;99.90
37050;DHT22;22958;51.232;6.826;2023-10-31T08:03:45;10.80;99.90
37050;DHT22;22958;51.232;6.826;2023-10-31T08:06:11;10.80;99.90
37050;DHT22;22958;51.232;6.826;2023-10-31T08:08:36;10.90;99.90
37050;DHT22;22958;51.232;6.826;2023-10-31T08:11:02;10.90;99.90
37050;DHT22;22958;51.232;6.826;2023-10-31T08:13:29;10.90;99.90
37050;DHT22;22958;51.232;6.826;2023-10-31T08:15:55;10.90;99.90
37050;DHT22;22958;51.232;6.826;2023-10-31T08:18:22;10.90;99.90
37050;DHT22;22958;51.232;6.826;2023-10-31T08:20:48;10.90;99.90
37050;DHT22;22958;51.232;6.826;2023-10-31T08:23:16;11.00;99.90
37050;DHT22;22958;51.232;6.826;2023-10-31T08:25:42;11.00;99.90
37050;DHT22;22958;51.232;6.826;2023-10-31T08:28:07;11.00;99.90
37050;DHT22;22958;51.232;6.826;2023-10-31T08:30:33;11.10;99.90
37050;DHT22;22958;51.232;6.826;2023-10-31T08:32:59;11.10;99.90
37050;DHT22;22958;51.232;6.826;2023-10-31T08:35:24;11.20;99.90
37050;DHT22;22958;51.232;6.826;2023-10-31T08:37:50;11.20;99.90
37050;DHT22;22958;51.232;6.826;2023-10-31T08:40:15;11.20;99.90
37050;DHT22;22958;51.232;6.826;2023-10-31T08:42:41;11.20;99.90
37050;DHT22;22958;51.232;6.826;2023-10-31T08:45:07;11.30;99.90
37050;DHT22;22958;51.232;6.826;2023-10-31T08:47:33;11.20;99.90
37050;DHT22;22958;51.232;6.826;2023-10-31T08:49:59;11.30;99.90
37050;DHT22;22958;51.232;6.826;2023-10-31T08:52:24;11.30;99.90
37050;DHT22;22958;51.232;6.826;2023-10-31T08:54:50;11.30;99.90
37050;DHT22;22958;51.232;6.826;2023-10-31T08:57:16;11.40;99.90
37050;DHT22;22958;51.232;6.826;2023-10-31T08:59:41;11.30;99.90
37050;DHT22;22958;51.232;6.826;2023-10-31T09:02:07;11.40;99.90
37050;DHT22;22958;51.232;6.826;2023-10-31T09:04:32;11.40;99.90
37050;DHT22;22958;51.232;6.826;2023-10-31T09:06:58;11.40;99.90
37050;DHT22;22958;51.232;6.826;2023-10-31T09:09:23;11.40;99.90
37050;DHT22;22958;51.232;6.826;2023-10-31T09:11:49;11.40;99.90
37050;DHT22;22958;51.232;6.826;2023-10-31T09:14:14;11.40;99.90
37050;DHT22;22958;51.232;6.826;2023-10-31T09:16:40;11.40;99.90
37050;DHT22;22958;51.232;6.826;2023-10-31T09:19:06;11.40;99.90
37050;DHT22;22958;51.232;6.826;2023-10-31T09:21:31;11.50;99.90
37050;DHT22;22958;51.232;6.826;2023-10-31T09:23:57;11.60;99.90
37050;DHT22;22958;51.232;6.826;2023-10-31T09:26:22;11.60;99.90
37050;DHT22;22958;51.232;6.826;2023-10-31T09:28:48;11.60;99.90
37050;DHT22;22958;51.232;6.826;2023-10-31T09:31:19;11.60;99.90
37050;DHT22;22958;51.232;6.826;2023-10-31T09:33:48;11.80;99.90
37050;DHT22;22958;51.232;6.826;2023-10-31T09:36:13;11.90;99.90
37050;DHT22;22958;51.232;6.826;2023-10-31T09:38:40;12.10;99.90
37050;DHT22;22958;51.232;6.826;2023-10-31T09:41:06;12.20;99.90
37050;DHT22;22958;51.232;6.826;2023-10-31T09:43:31;12.20;99.90
37050;DHT22;22958;51.232;6.826;2023-10-31T09:45:57;12.20;99.90
37050;DHT22;22958;51.232;6.826;2023-10-31T09:48:24;12.20;99.90
37050;DHT22;22958;51.232;6.826;2023-10-31T09:50:50;12.20;99.90
37050;DHT22;22958;51.232;6.826;2023-10-31T09:53:16;12.30;99.90
37050;DHT22;22958;51.232;6.826;2023-10-31T09:55:43;12.30;99.90
37050;DHT22;22958;51.232;6.826;2023-10-31T09:58:08;12.40;99.90
37050;DHT22;22958;51.232;6.826;2023-10-31T10:00:34;12.50;99.90
37050;DHT22;22958;51.232;6.826;2023-10-31T10:03:09;12.60;99.90
37050;DHT22;22958;51.232;6.826;2023-10-31T10:05:36;12.70;99.90
37050;DHT22;22958;51.232;6.826;2023-10-31T10:08:06;12.70;99.90
37050;DHT22;22958;51.232;6.826;2023-10-31T10:10:34;12.60;99.90
37050;DHT22;22958;51.232;6.826;2023-10-31T10:12:59;12.60;99.90
37050;DHT22;22958;51.232;6.826;2023-10-31T10:15:28;12.80;99.90
37050;DHT22;22958;51.232;6.826;2023-10-31T10:17:54;12.70;99.90
37050;DHT22;22958;51.232;6.826;2023-10-31T10:20:20;12.80;99.90
37050;DHT22;22958;51.232;6.826;2023-10-31T10:22:46;12.80;99.90
37050;DHT22;22958;51.232;6.826;2023-10-31T10:25:16;12.90;99.90
37050;DHT22;22958;51.232;6.826;2023-10-31T10:27:44;12.90;99.90
37050;DHT22;22958;51.232;6.826;2023-10-31T10:30:10;12.90;99.90
37050;DHT22;22958;51.232;6.826;2023-10-31T10:32:36;13.00;99.90
37050;DHT22;22958;51.232;6.826;2023-10-31T10:35:02;13.10;99.90
37050;DHT22;22958;51.232;6.826;2023-10-31T10:37:28;13.00;99.90
37050;DHT22;22958;51.232;6.826;2023-10-31T10:39:56;13.00;99.90
37050;DHT22;22958;51.232;6.826;2023-10-31T10:42:46;13.20;99.90
37050;DHT22;22958;51.232;6.826;2023-10-31T10:45:15;13.60;99.90
37050;DHT22;22958;51.232;6.826;2023-10-31T10:47:46;13.70;99.90
37050;DHT22;22958;51.232;6.826;2023-10-31T10:50:12;13.90;99.90
37050;DHT22;22958;51.232;6.826;2023-10-31T10:52:42;14.30;99.90
37050;DHT22;22958;51.232;6.826;2023-10-31T10:55:20;14.80;99.90
37050;DHT22;22958;51.232;6.826;2023-10-31T10:58:08;14.60;99.90
37050;DHT22;22958;51.232;6.826;2023-10-31T11:00:38;14.30;99.90
37050;DHT22;22958;51.232;6.826;2023-10-31T11:03:05;14.00;99.90
37050;DHT22;22958;51.232;6.826;2023-10-31T11:05:32;13.80;99.90
37050;DHT22;22958;51.232;6.826;2023-10-31T11:07:58;14.20;32.60
37050;DHT22;22958;51.232;6.826;2023-10-31T11:10:24;14.40;1.00
37050;DHT22;22958;51.232;6.826;2023-10-31T11:12:50;14.50;1.00
37050;DHT22;22958;51.232;6.826;2023-10-31T11:15:17;14.60;1.00
37050;DHT22;22958;51.232;6.826;2023-10-31T11:17:44;14.40;1.00
37050;DHT22;22958;51.232;6.826;2023-10-31T11:20:13;14.30;1.00
37050;DHT22;22958;51.232;6.826;2023-10-31T11:22:43;14.20;1.00
37050;DHT22;22958;51.232;6.826;2023-10-31T11:25:20;14.10;1.00
37050;DHT22;22958;51.232;6.826;2023-10-31T11:27:50;14.10;1.00
37050;DHT22;22958;51.232;6.826;2023-10-31T11:30:27;14.00;1.00
37050;DHT22;22958;51.232;6.826;2023-10-31T11:32:53;14.00;1.00
37050;DHT22;22958;51.232;6.826;2023-10-31T11:35:19;14.10;1.00
37050;DHT22;22958;51.232;6.826;2023-10-31T11:37:49;14.00;1.00
37050;DHT22;22958;51.232;6.826;2023-10-31T11:40:24;13.90;1.00
37050;DHT22;22958;51.232;6.826;2023-10-31T11:42:57;13.90;1.00
37050;DHT22;22958;51.232;6.826;2023-10-31T11:45:34;13.70;1.00
37050;DHT22;22958;51.232;6.826;2023-10-31T11:48:01;13.70;1.00
37050;DHT22;22958;51.232;6.826;2023-10-31T11:50:26;13.60;1.00
37050;DHT22;22958;51.232;6.826;2023-10-31T11:53:06;13.50;1.00
37050;DHT22;22958;51.232;6.826;2023-10-31T11:55:40;13.60;1.00
37050;DHT22;22958;51.232;6.826;2023-10-31T12:00:44;13.60;1.00
37050;DHT22;22958;51.232;6.826;2023-10-31T12:03:10;13.50;1.00
37050;DHT22;22958;51.232;6.826;2023-10-31T12:05:36;13.50;1.00
37050;DHT22;22958;51.232;6.826;2023-10-31T12:08:01;13.40;1.00
37050;DHT22;22958;51.232;6.826;2023-10-31T12:10:28;13.50;1.00
37050;DHT22;22958;51.232;6.826;2023-10-31T12:12:56;13.50;1.00
37050;DHT22;22958;51.232;6.826;2023-10-31T12:15:23;13.40;1.00
37050;DHT22;22958;51.232;6.826;2023-10-31T12:17:49;13.50;1.00
37050;DHT22;22958;51.232;6.826;2023-10-31T12:20:15;13.50;1.00
37050;DHT22;22958;51.232;6.826;2023-10-31T12:22:43;13.50;7.60
37050;DHT22;22958;51.232;6.826;2023-10-31T12:25:11;13.60;8.10
37050;DHT22;22958;51.232;6.826;2023-10-31T12:27:44;13.60;1.00
37050;DHT22;22958;51.232;6.826;2023-10-31T12:30:11;13.50;1.00
37050;DHT22;22958;51.232;6.826;2023-10-31T12:32:37;13.50;1.00
37050;DHT22;22958;51.232;6.826;2023-10-31T12:35:04;13.60;1.00
37050;DHT22;22958;51.232;6.826;2023-10-31T12:37:30;13.60;1.00
37050;DHT22;22958;51.232;6.826;2023-10-31T12:39:56;13.70;1.00
37050;DHT22;22958;51.232;6.826;2023-10-31T12:42:22;13.70;1.00
37050;DHT22;22958;51.232;6.826;2023-10-31T12:44:54;13.70;1.00
37050;DHT22;22958;51.232;6.826;2023-10-31T12:47:23;13.80;1.00
37050;DHT22;22958;51.232;6.826;2023-10-31T12:52:48;13.70;1.00
37050;DHT22;22958;51.232;6.826;2023-10-31T12:55:15;13.90;1.00
37050;DHT22;22958;51.232;6.826;2023-10-31T12:57:41;14.00;1.00
37050;DHT22;22958;51.232;6.826;2023-10-31T13:00:07;14.10;1.00
37050;DHT22;22958;51.232;6.826;2023-10-31T13:02:36;14.30;1.00
37050;DHT22;22958;51.232;6.826;2023-10-31T13:05:12;15.00;99.90
37050;DHT22;22958;51.232;6.826;2023-10-31T13:07:38;15.50;26.30
37050;DHT22;22958;51.232;6.826;2023-10-31T13:10:07;15.40;31.20
37050;DHT22;22958;51.232;6.826;2023-10-31T13:12:36;15.30;1.00
37050;DHT22;22958;51.232;6.826;2023-10-31T13:15:02;15.10;99.90
37050;DHT22;22958;51.232;6.826;2023-10-31T13:17:28;15.70;99.90
37050;DHT22;22958;51.232;6.826;2023-10-31T13:19:53;17.00;1.00
37050;DHT22;22958;51.232;6.826;2023-10-31T13:22:19;18.70;1.00
37050;DHT22;22958;51.232;6.826;2023-10-31T13:24:45;19.10;99.90
37050;DHT22;22958;51.232;6.826;2023-10-31T13:27:11;18.20;99.90
37050;DHT22;22958;51.232;6.826;2023-10-31T13:29:41;17.30;1.00
37050;DHT22;22958;51.232;6.826;2023-10-31T13:32:07;16.50;99.90
37050;DHT22;22958;51.232;6.826;2023-10-31T13:34:34;15.80;99.90
37050;DHT22;22958;51.232;6.826;2023-10-31T13:36:59;15.20;1.00
37050;DHT22;22958;51.232;6.826;2023-10-31T13:39:25;15.40;1.00
37050;DHT22;22958;51.232;6.826;2023-10-31T13:41:51;15.20;92.70
37050;DHT22;22958;51.232;6.826;2023-10-31T13:44:16;15.60;99.90
37050;DHT22;22958;51.232;6.826;2023-10-31T13:46:42;15.50;1.00
37050;DHT22;22958;51.232;6.826;2023-10-31T13:49:08;15.20;29.30
37050;DHT22;22958;51.232;6.826;2023-10-31T13:51:33;15.20;1.00
37050;DHT22;22958;51.232;6.826;2023-10-31T13:53:59;15.80;99.90
37050;DHT22;22958;51.232;6.826;2023-10-31T13:56:24;16.90;83.90
37050;DHT22;22958;51.232;6.826;2023-10-31T13:58:50;17.20;1.00
37050;DHT22;22958;51.232;6.826;2023-10-31T14:01:15;16.80;1.00
37050;DHT22;22958;51.232;6.826;2023-10-31T14:03:41;16.60;75.80
37050;DHT22;22958;51.232;6.826;2023-10-31T14:06:07;17.10;1.00
37050;DHT22;22958;51.232;6.826;2023-10-31T14:08:32;16.40;1.00
37050;DHT22;22958;51.232;6.826;2023-10-31T14:10:58;16.20;1.00
37050;DHT22;22958;51.232;6.826;2023-10-31T14:13:24;16.80;1.00
37050;DHT22;22958;51.232;6.826;2023-10-31T14:15:49;17.00;1.00
37050;DHT22;22958;51.232;6.826;2023-10-31T14:18:15;18.10;99.90
37050;DHT22;22958;51.232;6.826;2023-10-31T14:20:41;19.00;99.90
37050;DHT22;22958;51.232;6.826;2023-10-31T14:23:06;18.60;99.90
37050;DHT22;22958;51.232;6.826;2023-10-31T14:25:32;18.30;99.90
37050;DHT22;22958;51.232;6.826;2023-10-31T14:27:58;18.50;99.90
37050;DHT22;22958;51.232;6.826;2023-10-31T14:30:24;18.20;99.90
37050;DHT22;22958;51.232;6.826;2023-10-31T14:32:51;17.90;99.90
37050;DHT22;22958;51.232;6.826;2023-10-31T14:35:16;18.40;99.90
37050;DHT22;22958;51.232;6.826;2023-10-31T14:37:42;18.70;99.90
37050;DHT22;22958;51.232;6.826;2023-10-31T14:40:09;18.70;99.90
37050;DHT22;22958;51.232;6.826;2023-10-31T14:42:34;18.80;78.90
37050;DHT22;22958;51.232;6.826;2023-10-31T14:45:00;18.70;80.00
37050;DHT22;22958;51.232;6.826;2023-10-31T14:47:26;18.20;99.90
37050;DHT22;22958;51.232;6.826;2023-10-31T14:49:51;17.80;99.90
37050;DHT22;22958;51.232;6.826;2023-10-31T14:52:17;17.70;99.90
37050;DHT22;22958;51.232;6.826;2023-10-31T14:54:43;17.40;99.90
37050;DHT22;22958;51.232;6.826;2023-10-31T14:57:08;16.90;99.90
37050;DHT22;22958;51.232;6.826;2023-10-31T14:59:34;16.20;1.00
37050;DHT22;22958;51.232;6.826;2023-10-31T15:01:59;15.80;99.90
37050;DHT22;22958;51.232;6.826;2023-10-31T15:04:25;15.70;99.90
37050;DHT22;22958;51.232;6.826;2023-10-31T15:06:50;15.90;1.00
37050;DHT22;22958;51.232;6.826;2023-10-31T15:09:16;15.80;99.90
37050;DHT22;22958;51.232;6.826;2023-10-31T15:11:44;15.30;99.90
37050;DHT22;22958;51.232;6.826;2023-10-31T15:14:10;15.20;1.00
37050;DHT22;22958;51.232;6.826;2023-10-31T15:16:36;15.00;99.90
37050;DHT22;22958;51.232;6.826;2023-10-31T15:19:01;14.80;1.00
37050;DHT22;22958;51.232;6.826;2023-10-31T15:21:27;14.60;99.90
37050;DHT22;22958;51.232;6.826;2023-10-31T15:23:53;14.50;1.00
37050;DHT22;22958;51.232;6.826;2023-10-31T15:26:18;14.30;1.00
37050;DHT22;22958;51.232;6.826;2023-10-31T15:28:44;14.20;1.00
37050;DHT22;22958;51.232;6.826;2023-10-31T15:31:10;14.10;1.00
37050;DHT22;22958;51.232;6.826;2023-10-31T15:33:36;14.10;1.00
37050;DHT22;22958;51.232;6.826;2023-10-31T15:36:02;14.00;15.60